Time;durP1;ratioP1;P1;durP2;ratioP2;P2;SDS_P1;SDS_P2;PMS_P1;PMS_P2;Temp;Humidity;BMP_temperature;BMP_pressure;BME280_temperature;BME280_humidity;BME280_pressure;Samples;Min_cycle;Max_cycle;Signal;HPM_P1;HPM_P2
2023/06/20 00:01:17;;;;;;;;;;;;;;;21.50;63.42;97640.72;5074692;28;20013;-60
2023/06/20 00:03:45;;;;;;;;;;;;;;;21.45;63.52;97647.41;5042094;28;20031;-60
2023/06/20 00:06:13;;;;;;;;;;;;;;;21.39;63.67;97644.22;5060101;28;19964;-60
2023/06/20 00:08:40;;;;;;;;;;;;;;;21.33;63.62;97648.53;5038998;28;19928;-60
2023/06/20 00:11:08;;;;;;;;;;;;;;;21.30;63.98;97638.25;5056708;28;19979;-60
2023/06/20 00:13:42;;;;;;;;;;;;;;;21.25;64.05;97622.03;5038058;28;19982;-61
2023/06/20 00:16:10;;;;;;;;;;;;;;;21.26;63.68;97625.59;5039607;28;19939;-60
2023/06/20 00:18:38;;;;;;;;;;;;;;;21.23;64.03;97626.38;5061103;28;19930;-61
2023/06/20 00:21:06;;;;;;;;;;;;;;;21.24;63.91;97637.03;5062602;28;20412;-60
2023/06/20 00:23:33;;;;;;;;;;;;;;;21.25;63.35;97633.06;5048498;28;19978;-60
2023/06/20 00:26:01;;;;;;;;;;;;;;;21.24;63.38;97634.25;5065582;28;19929;-60
2023/06/20 00:28:29;;;;;;;;;;;;;;;21.24;63.34;97628.72;5061079;28;20381;-60
2023/06/20 00:31:00;;;;;;;;;;;;;;;21.23;63.45;97640.97;5042747;28;20020;-60
2023/06/20 00:33:28;;;;;;;;;;;;;;;21.17;63.47;97648.84;5052245;28;19924;-60
2023/06/20 00:35:56;;;;;;;;;;;;;;;21.15;63.51;97655.94;5064484;28;19936;-61
2023/06/20 00:38:29;;;;;;;;;;;;;;;21.13;63.97;97658.28;5040314;28;20297;-60
2023/06/20 00:40:57;;;;;;;;;;;;;;;21.16;63.63;97654.75;5058420;28;19932;-61
2023/06/20 00:43:25;;;;;;;;;;;;;;;21.09;64.10;97652.75;5060787;28;19929;-60
2023/06/20 00:45:52;;;;;;;;;;;;;;;21.10;64.10;97650.78;5039949;28;20002;-60
2023/06/20 00:48:23;;;;;;;;;;;;;;;21.10;64.03;97650.78;5055118;28;19925;-60
2023/06/20 00:50:52;;;;;;;;;;;;;;;21.05;64.58;97654.72;5041875;28;20035;-60
2023/06/20 00:53:19;;;;;;;;;;;;;;;20.96;64.58;97656.22;5065527;28;19925;-60
2023/06/20 00:55:47;;;;;;;;;;;;;;;20.95;64.88;97649.13;5044986;28;20332;-60
2023/06/20 00:58:16;;;;;;;;;;;;;;;20.90;65.15;97648.31;5046268;28;20407;-60
2023/06/20 01:00:44;;;;;;;;;;;;;;;20.94;64.73;97642.81;5041587;28;20015;-60
2023/06/20 01:03:13;;;;;;;;;;;;;;;20.95;64.68;97660.97;5058188;28;20011;-60
2023/06/20 01:05:42;;;;;;;;;;;;;;;20.96;64.75;97670.03;5021786;28;19930;-61
2023/06/20 01:08:14;;;;;;;;;;;;;;;20.95;64.47;97673.97;5023744;28;19925;-60
2023/06/20 01:10:45;;;;;;;;;;;;;;;20.90;64.57;97672.38;5027132;28;19931;-60
2023/06/20 01:13:18;;;;;;;;;;;;;;;20.91;64.54;97666.44;5019156;28;19929;-60
2023/06/20 01:15:48;;;;;;;;;;;;;;;20.90;64.74;97653.81;5025435;28;19925;-60
2023/06/20 01:18:19;;;;;;;;;;;;;;;20.86;64.91;97669.56;5044944;28;19929;-61
2023/06/20 01:20:50;;;;;;;;;;;;;;;20.87;64.84;97656.56;5025758;28;19975;-60
2023/06/20 01:23:21;;;;;;;;;;;;;;;20.88;64.80;97656.19;5043518;28;20007;-60
2023/06/20 01:25:51;;;;;;;;;;;;;;;20.88;64.89;97672.75;5060523;28;20437;-60
2023/06/20 01:28:22;;;;;;;;;;;;;;;20.91;64.57;97666.44;5024111;28;19925;-60
2023/06/20 01:30:52;;;;;;;;;;;;;;;20.95;64.45;97673.97;5059397;28;19924;-60
2023/06/20 01:33:21;;;;;;;;;;;;;;;20.98;64.37;97670.44;5043251;28;19924;-60
2023/06/20 01:35:48;;;;;;;;;;;;;;;20.95;64.61;97671.22;5020015;28;19971;-60
2023/06/20 01:38:16;;;;;;;;;;;;;;;20.85;65.05;97673.53;5025993;28;19940;-60
2023/06/20 01:40:48;;;;;;;;;;;;;;;20.79;65.39;97671.50;5037014;28;20368;-60
2023/06/20 01:43:16;;;;;;;;;;;;;;;20.79;65.59;97677.03;5048488;28;19982;-60
2023/06/20 01:45:44;;;;;;;;;;;;;;;20.78;65.63;97683.75;5049410;28;19960;-60
2023/06/20 01:48:12;;;;;;;;;;;;;;;20.75;65.54;97682.53;5019421;28;20390;-60
2023/06/20 01:50:39;;;;;;;;;;;;;;;20.69;65.78;97686.03;5027342;28;19983;-60
2023/06/20 01:53:10;;;;;;;;;;;;;;;20.73;65.25;97679.38;5022992;28;19925;-60
2023/06/20 01:55:41;;;;;;;;;;;;;;;20.78;65.26;97679.00;5027838;28;20346;-60
2023/06/20 01:58:10;;;;;;;;;;;;;;;20.72;65.59;97672.25;5059672;28;19931;-60
2023/06/20 02:00:38;;;;;;;;;;;;;;;20.78;65.33;97673.47;5024098;28;19967;-60
2023/06/20 02:03:06;;;;;;;;;;;;;;;20.80;65.39;97673.88;5021852;28;19925;-60
2023/06/20 02:05:35;;;;;;;;;;;;;;;20.76;65.55;97675.81;5058780;28;20744;-60
2023/06/20 02:08:03;;;;;;;;;;;;;;;20.77;65.42;97677.41;5043141;28;19932;-60
2023/06/20 02:10:31;;;;;;;;;;;;;;;20.78;65.58;97673.47;5051185;28;19928;-60
2023/06/20 02:12:59;;;;;;;;;;;;;;;20.66;65.86;97666.28;5058041;28;20443;-60
2023/06/20 02:15:28;;;;;;;;;;;;;;;20.67;66.01;97667.09;5046544;28;19932;-60
2023/06/20 02:17:57;;;;;;;;;;;;;;;20.63;65.90;97663.50;5072857;28;19950;-61
2023/06/20 02:20:25;;;;;;;;;;;;;;;20.62;65.94;97681.25;5073197;28;19925;-60
2023/06/20 02:22:55;;;;;;;;;;;;;;;20.64;65.83;97679.69;5077840;28;19936;-60
2023/06/20 02:25:24;;;;;;;;;;;;;;;20.55;66.02;97681.97;5057741;28;20024;-60
2023/06/20 02:27:54;;;;;;;;;;;;;;;20.46;66.05;97683.47;5068456;28;20327;-60
2023/06/20 02:30:23;;;;;;;;;;;;;;;20.51;66.29;97686.69;5046912;28;19924;-60
2023/06/20 02:32:52;;;;;;;;;;;;;;;20.45;66.27;97688.16;5040606;28;19932;-60
2023/06/20 02:35:20;;;;;;;;;;;;;;;20.48;66.54;97697.69;5064607;28;19931;-61
2023/06/20 02:37:48;;;;;;;;;;;;;;;20.49;66.37;97699.28;5045647;28;20377;-60
2023/06/20 02:40:16;;;;;;;;;;;;;;;20.55;66.07;97709.56;5071046;28;20365;-60
2023/06/20 02:42:44;;;;;;;;;;;;;;;20.58;65.76;97708.03;5038075;28;19925;-60
2023/06/20 02:45:13;;;;;;;;;;;;;;;20.56;65.45;97711.19;5070178;28;20397;-60
2023/06/20 02:47:43;;;;;;;;;;;;;;;20.53;65.72;97722.19;5037862;28;19924;-60
2023/06/20 02:50:20;;;;;;;;;;;;;;;20.54;65.79;97727.31;5038581;28;19929;-60
2023/06/20 02:52:49;;;;;;;;;;;;;;;20.57;65.68;97736.81;5037798;28;19924;-60
2023/06/20 02:55:18;;;;;;;;;;;;;;;20.60;65.65;97766.38;5050062;28;20277;-60
2023/06/20 02:57:47;;;;;;;;;;;;;;;20.61;65.56;97784.53;5061698;28;20353;-60
2023/06/20 03:00:16;;;;;;;;;;;;;;;20.56;65.78;97806.97;5050382;28;19970;-60
2023/06/20 03:02:45;;;;;;;;;;;;;;;20.55;65.88;97788.81;5048942;28;19924;-60
2023/06/20 03:05:15;;;;;;;;;;;;;;;20.54;66.03;97778.97;5037670;28;20325;-60
2023/06/20 03:07:42;;;;;;;;;;;;;;;20.56;66.49;97804.19;5045224;28;20358;-60
2023/06/20 03:10:12;;;;;;;;;;;;;;;20.55;66.57;97795.13;5049840;28;19925;-60
2023/06/20 03:12:42;;;;;;;;;;;;;;;20.58;66.53;97813.69;5044526;28;20391;-60
2023/06/20 03:15:10;;;;;;;;;;;;;;;20.58;66.33;97815.66;5041149;28;19933;-60
2023/06/20 03:17:41;;;;;;;;;;;;;;;20.58;66.40;97827.50;5041350;28;20510;-60
2023/06/20 03:20:09;;;;;;;;;;;;;;;20.58;66.38;97833.03;5038772;28;20476;-60
2023/06/20 03:22:40;;;;;;;;;;;;;;;20.56;66.19;97831.78;5046535;28;19924;-60
2023/06/20 03:25:10;;;;;;;;;;;;;;;20.60;66.31;97838.94;5036438;28;19924;-60
2023/06/20 03:27:39;;;;;;;;;;;;;;;20.65;65.93;97835.06;5042253;28;19932;-60
2023/06/20 03:30:09;;;;;;;;;;;;;;;20.68;66.07;97834.31;5043225;28;19925;-60
2023/06/20 03:32:43;;;;;;;;;;;;;;;20.70;66.02;97837.47;5056881;28;20043;-60
2023/06/20 03:35:12;;;;;;;;;;;;;;;20.71;66.00;97841.00;5046144;28;19932;-60
2023/06/20 03:37:41;;;;;;;;;;;;;;;20.71;65.77;97833.53;5035711;28;19924;-60
2023/06/20 03:40:09;;;;;;;;;;;;;;;20.77;66.05;97836.72;5042577;28;19932;-60
2023/06/20 03:42:39;;;;;;;;;;;;;;;20.79;65.82;97843.47;5044094;28;19935;-60
2023/06/20 03:45:07;;;;;;;;;;;;;;;20.83;65.70;97841.53;5038876;28;19925;-60
2023/06/20 03:47:37;;;;;;;;;;;;;;;20.85;65.74;97844.72;5040211;28;20282;-60
2023/06/20 03:50:05;;;;;;;;;;;;;;;20.88;65.42;97834.88;5034044;28;20562;-60
2023/06/20 03:52:33;;;;;;;;;;;;;;;20.88;65.46;97843.97;5042522;28;20292;-60
2023/06/20 03:55:02;;;;;;;;;;;;;;;20.91;64.82;97848.72;5047621;28;19936;-60
2023/06/20 03:57:30;;;;;;;;;;;;;;;20.96;64.20;97855.06;5047305;28;19924;-60
2023/06/20 03:59:58;;;;;;;;;;;;;;;21.00;64.13;97855.91;5064219;28;20015;-61
2023/06/20 04:02:27;;;;;;;;;;;;;;;21.04;64.34;97867.75;5047952;28;19933;-60
2023/06/20 04:04:56;;;;;;;;;;;;;;;21.02;64.63;97870.91;5049605;28;19928;-60
2023/06/20 04:07:23;;;;;;;;;;;;;;;21.03;64.99;97866.16;5052251;28;20350;-60
2023/06/20 04:09:51;;;;;;;;;;;;;;;21.06;65.29;97854.38;5029434;28;20024;-60
2023/06/20 04:12:20;;;;;;;;;;;;;;;21.10;65.73;97844.16;5064410;28;19925;-60
2023/06/20 04:14:48;;;;;;;;;;;;;;;21.09;66.14;97835.06;5062545;28;19978;-60
2023/06/20 04:17:17;;;;;;;;;;;;;;;21.07;66.06;97820.03;5066756;28;20365;-60
2023/06/20 04:19:44;;;;;;;;;;;;;;;20.90;66.29;97816.75;5048760;28;20012;-60
2023/06/20 04:22:14;;;;;;;;;;;;;;;20.91;66.57;97812.00;5042328;28;19956;-60
2023/06/20 04:24:43;;;;;;;;;;;;;;;20.93;66.34;97798.59;5074192;28;19925;-60
2023/06/20 04:27:11;;;;;;;;;;;;;;;20.83;66.78;97819.47;5044489;28;20520;-60
2023/06/20 04:29:40;;;;;;;;;;;;;;;20.82;69.12;97833.63;5041104;28;19939;-60
2023/06/20 04:32:08;;;;;;;;;;;;;;;20.79;68.91;97824.16;5043182;28;19935;-60
2023/06/20 04:34:36;;;;;;;;;;;;;;;20.66;70.38;97822.81;5037623;28;19982;-60
2023/06/20 04:37:04;;;;;;;;;;;;;;;20.67;69.45;97821.69;5049128;28;20019;-60
2023/06/20 04:39:32;;;;;;;;;;;;;;;20.68;70.56;97820.50;5040734;28;20400;-60
2023/06/20 04:41:59;;;;;;;;;;;;;;;20.68;70.58;97814.97;5044526;28;19924;-60
2023/06/20 04:44:27;;;;;;;;;;;;;;;20.74;71.02;97810.69;5041988;28;20025;-60
2023/06/20 04:46:56;;;;;;;;;;;;;;;20.69;70.29;97777.13;5043176;28;19933;-60
2023/06/20 04:49:24;;;;;;;;;;;;;;;20.74;69.27;97777.56;5041967;28;19995;-60
2023/06/20 04:51:54;;;;;;;;;;;;;;;20.74;70.26;97796.88;5058939;28;19928;-60
2023/06/20 04:54:21;;;;;;;;;;;;;;;20.78;71.34;97811.53;5045142;28;20023;-60
2023/06/20 04:56:50;;;;;;;;;;;;;;;20.71;71.39;97800.41;5041033;28;20024;-60
2023/06/20 04:59:17;;;;;;;;;;;;;;;20.74;71.32;97820.94;5041913;28;19928;-60
2023/06/20 05:01:50;;;;;;;;;;;;;;;20.70;71.08;97815.38;5035304;28;19968;-61
2023/06/20 05:04:20;;;;;;;;;;;;;;;20.64;71.44;97811.38;5043980;28;20336;-60
2023/06/20 05:06:47;;;;;;;;;;;;;;;20.63;71.55;97813.34;5039786;28;19947;-61
2023/06/20 05:09:15;;;;;;;;;;;;;;;20.59;71.04;97817.25;5045360;28;20399;-60
2023/06/20 05:11:43;;;;;;;;;;;;;;;20.59;70.86;97817.25;5037734;28;19925;-60
2023/06/20 05:14:11;;;;;;;;;;;;;;;20.61;70.46;97814.91;5057654;28;20480;-60
2023/06/20 05:16:39;;;;;;;;;;;;;;;20.62;69.87;97811.78;5042892;28;20392;-60
2023/06/20 05:19:06;;;;;;;;;;;;;;;20.54;69.40;97817.59;5068169;28;19966;-64
2023/06/20 05:21:36;;;;;;;;;;;;;;;20.60;69.05;97816.88;5042806;28;19928;-60
2023/06/20 05:24:04;;;;;;;;;;;;;;;20.57;70.19;97816.84;5072340;28;19924;-60
2023/06/20 05:26:32;;;;;;;;;;;;;;;20.69;68.23;97813.00;5062368;28;19928;-60
2023/06/20 05:28:59;;;;;;;;;;;;;;;20.65;68.77;97818.50;5069496;28;19952;-60
2023/06/20 05:31:30;;;;;;;;;;;;;;;20.69;69.19;97810.25;5063540;28;19924;-61
2023/06/20 05:34:02;;;;;;;;;;;;;;;20.74;69.10;97809.91;5070399;28;19925;-61
2023/06/20 05:36:30;;;;;;;;;;;;;;;20.74;68.11;97812.66;5060253;28;20357;-61
2023/06/20 05:38:59;;;;;;;;;;;;;;;20.79;68.30;97809.56;5062404;28;20356;-60
2023/06/20 05:41:27;;;;;;;;;;;;;;;20.78;68.54;97819.81;5067100;28;19925;-61
2023/06/20 05:43:55;;;;;;;;;;;;;;;20.74;68.59;97805.16;5066461;28;19971;-60
2023/06/20 05:46:23;;;;;;;;;;;;;;;20.71;69.38;97805.13;5071872;28;20463;-61
2023/06/20 05:48:51;;;;;;;;;;;;;;;20.69;69.50;97791.72;5062351;28;19924;-60
2023/06/20 05:51:20;;;;;;;;;;;;;;;20.65;69.70;97782.59;5066090;28;19924;-60
2023/06/20 05:53:48;;;;;;;;;;;;;;;20.66;70.15;97786.94;5066963;28;19924;-60
2023/06/20 05:56:17;;;;;;;;;;;;;;;20.61;70.90;97790.06;5056398;28;19968;-60
2023/06/20 05:58:45;;;;;;;;;;;;;;;20.56;71.55;97804.19;5061138;28;20141;-60
2023/06/20 06:01:13;;;;;;;;;;;;;;;20.56;70.89;97805.00;5036225;28;19932;-60
2023/06/20 06:03:40;;;;;;;;;;;;;;;20.61;71.44;97812.13;5060098;28;19928;-60
2023/06/20 06:06:09;;;;;;;;;;;;;;;20.65;71.39;97821.25;5064498;28;19932;-61
2023/06/20 06:08:37;;;;;;;;;;;;;;;20.67;71.84;97824.44;5065443;28;19972;-60
2023/06/20 06:11:06;;;;;;;;;;;;;;;20.69;72.02;97824.06;5062809;28;20019;-60
2023/06/20 06:13:39;;;;;;;;;;;;;;;20.71;72.10;97816.97;5061862;28;19979;-60
2023/06/20 06:16:07;;;;;;;;;;;;;;;20.73;71.81;97814.63;5058505;28;19932;-60
2023/06/20 06:18:34;;;;;;;;;;;;;;;20.72;72.31;97812.22;5067541;28;19974;-60
2023/06/20 06:21:03;;;;;;;;;;;;;;;20.75;72.73;97811.47;5067243;28;19930;-60
2023/06/20 06:23:31;;;;;;;;;;;;;;;20.72;72.26;97807.53;5051468;28;19978;-60
2023/06/20 06:26:00;;;;;;;;;;;;;;;20.73;72.60;97811.09;5060572;28;19956;-60
2023/06/20 06:28:28;;;;;;;;;;;;;;;20.75;72.65;97820.56;5063441;28;19931;-62
2023/06/20 06:30:58;;;;;;;;;;;;;;;20.81;72.96;97821.78;5043391;28;20448;-61
2023/06/20 06:33:27;;;;;;;;;;;;;;;20.87;72.60;97836.03;5053272;28;19978;-60
2023/06/20 06:35:55;;;;;;;;;;;;;;;21.02;73.02;97836.97;5061272;28;20336;-60
2023/06/20 06:38:23;;;;;;;;;;;;;;;21.12;72.72;97839.81;5058930;28;19925;-60
2023/06/20 06:40:54;;;;;;;;;;;;;;;21.13;72.15;97843.38;5063645;28;19924;-60
2023/06/20 06:43:23;;;;;;;;;;;;;;;21.16;71.75;97843.41;5050560;28;19924;-60
2023/06/20 06:45:51;;;;;;;;;;;;;;;21.19;69.85;97845.38;5048210;28;19981;-60
2023/06/20 06:48:20;;;;;;;;;;;;;;;21.27;70.47;97850.97;5057974;28;20010;-60
2023/06/20 06:50:50;;;;;;;;;;;;;;;21.37;69.39;97856.63;5070343;28;19928;-60
2023/06/20 06:53:18;;;;;;;;;;;;;;;21.46;69.77;97870.06;5066670;28;19932;-60
2023/06/20 06:55:46;;;;;;;;;;;;;;;21.45;69.63;97861.00;5046880;28;19978;-60
2023/06/20 06:58:14;;;;;;;;;;;;;;;21.51;70.01;97860.63;5059310;28;19924;-61
2023/06/20 07:00:42;;;;;;;;;;;;;;;21.54;69.53;97870.94;5061973;28;19978;-60
2023/06/20 07:03:10;;;;;;;;;;;;;;;21.56;69.31;97866.59;5045141;28;19982;-60
2023/06/20 07:05:40;;;;;;;;;;;;;;;21.62;69.42;97869.78;5064021;28;20417;-60
2023/06/20 07:08:08;;;;;;;;;;;;;;;21.68;69.13;97860.78;5060724;28;19924;-59
2023/06/20 07:10:38;;;;;;;;;;;;;;;21.79;69.18;97860.84;5061569;28;19931;-61
2023/06/20 07:13:08;;;;;;;;;;;;;;;21.98;68.52;97868.03;5040368;28;19933;-60
2023/06/20 07:15:35;;;;;;;;;;;;;;;22.03;67.56;97866.88;5071196;28;20023;-60
2023/06/20 07:18:03;;;;;;;;;;;;;;;22.09;66.88;97870.84;5065681;28;19925;-60
2023/06/20 07:20:31;;;;;;;;;;;;;;;22.11;66.01;97874.84;5062268;28;19931;-61
2023/06/20 07:23:00;;;;;;;;;;;;;;;22.19;65.98;97870.13;5061559;28;19933;-60
2023/06/20 07:25:28;;;;;;;;;;;;;;;22.31;65.40;97861.47;5069491;28;20014;-60
2023/06/20 07:27:57;;;;;;;;;;;;;;;22.40;65.93;97867.44;5063437;28;20383;-60
2023/06/20 07:30:25;;;;;;;;;;;;;;;22.45;64.69;97864.28;5064440;28;20290;-61
2023/06/20 07:32:52;;;;;;;;;;;;;;;22.52;65.13;97848.88;5055492;28;19931;-61
2023/06/20 07:35:20;;;;;;;;;;;;;;;22.60;65.13;97845.75;5061347;28;19952;-60
2023/06/20 07:37:48;;;;;;;;;;;;;;;22.65;65.15;97853.69;5065024;28;20035;-61
2023/06/20 07:40:17;;;;;;;;;;;;;;;22.69;64.28;97856.44;5044520;28;20280;-61
2023/06/20 07:42:45;;;;;;;;;;;;;;;22.78;63.34;97867.13;5058937;28;19975;-62
2023/06/20 07:45:13;;;;;;;;;;;;;;;22.87;63.58;97870.31;5066846;28;19924;-61
2023/06/20 07:47:41;;;;;;;;;;;;;;;22.87;62.42;97867.56;5073798;28;19928;-61
2023/06/20 07:50:09;;;;;;;;;;;;;;;22.95;61.63;97878.25;5065687;28;19974;-61
2023/06/20 07:52:40;;;;;;;;;;;;;;;23.02;61.59;97877.50;5066490;28;19933;-61
2023/06/20 07:55:09;;;;;;;;;;;;;;;23.08;61.35;97875.13;5065070;28;20403;-61
2023/06/20 07:57:48;;;;;;;;;;;;;;;23.20;61.45;97867.22;5066487;28;19970;-62
2023/06/20 08:00:17;;;;;;;;;;;;;;;23.23;60.74;97876.72;5065107;28;19928;-61
2023/06/20 08:02:44;;;;;;;;;;;;;;;23.30;60.51;97871.16;5067629;28;20023;-60
2023/06/20 08:05:13;;;;;;;;;;;;;;;23.28;59.36;97854.16;5069851;28;19924;-61
2023/06/20 08:07:40;;;;;;;;;;;;;;;23.32;58.34;97862.44;5063662;28;19967;-62
2023/06/20 08:10:10;;;;;;;;;;;;;;;23.40;58.24;97848.19;5058888;28;19996;-60
2023/06/20 08:12:37;;;;;;;;;;;;;;;23.47;58.32;97853.72;5065717;28;19970;-61
2023/06/20 08:15:07;;;;;;;;;;;;;;;23.48;58.02;97843.41;5061292;28;19968;-62
2023/06/20 08:17:35;;;;;;;;;;;;;;;23.55;58.03;97839.88;5069733;28;20003;-61
2023/06/20 08:20:06;;;;;;;;;;;;;;;23.63;57.39;97838.66;5070130;28;19925;-61
2023/06/20 08:22:34;;;;;;;;;;;;;;;23.65;56.82;97841.81;5060055;28;19925;-61
2023/06/20 08:25:03;;;;;;;;;;;;;;;23.69;56.40;97837.84;5041146;28;19971;-62
2023/06/20 08:27:30;;;;;;;;;;;;;;;23.74;56.48;97829.13;5047874;28;19925;-61
2023/06/20 08:29:58;;;;;;;;;;;;;;;23.80;56.54;97832.28;5068786;28;19959;-61
2023/06/20 08:32:27;;;;;;;;;;;;;;;23.82;56.94;97837.44;5061004;28;20019;-63
2023/06/20 08:34:56;;;;;;;;;;;;;;;23.83;56.64;97834.25;5047024;28;19924;-62
2023/06/20 08:37:24;;;;;;;;;;;;;;;23.86;57.12;97843.75;5060473;28;19947;-61
2023/06/20 08:39:52;;;;;;;;;;;;;;;23.90;56.03;97837.00;5044056;28;20350;-61
2023/06/20 08:42:20;;;;;;;;;;;;;;;24.00;55.71;97833.41;5045153;28;19955;-61
2023/06/20 08:44:50;;;;;;;;;;;;;;;24.05;55.34;97829.44;5051493;28;19925;-61
2023/06/20 08:47:25;;;;;;;;;;;;;;;24.09;55.80;97834.97;5046134;28;19924;-63
2023/06/20 08:49:57;;;;;;;;;;;;;;;24.11;55.34;97836.13;5067020;28;19932;-62
2023/06/20 08:52:25;;;;;;;;;;;;;;;24.16;55.29;97837.72;5063522;28;20419;-63
2023/06/20 08:54:53;;;;;;;;;;;;;;;24.21;54.66;97834.50;5068262;28;19970;-64
2023/06/20 08:57:21;;;;;;;;;;;;;;;24.20;54.22;97830.94;5064581;28;19938;-64
2023/06/20 08:59:49;;;;;;;;;;;;;;;24.24;55.09;97828.16;5044546;28;19928;-64
2023/06/20 09:02:18;;;;;;;;;;;;;;;24.22;54.66;97833.31;5068648;28;19932;-64
2023/06/20 09:04:46;;;;;;;;;;;;;;;24.26;55.02;97825.78;5032744;28;19965;-62
2023/06/20 09:07:18;;;;;;;;;;;;;;;24.24;55.55;97819.84;5036485;28;19929;-65
2023/06/20 09:09:46;;;;;;;;;;;;;;;24.27;55.10;97816.25;5049378;28;19982;-62
2023/06/20 09:12:17;;;;;;;;;;;;;;;24.33;55.00;97822.94;5033763;28;20020;-62
2023/06/20 09:14:46;;;;;;;;;;;;;;;24.32;55.09;97824.16;5035849;28;20301;-64
2023/06/20 09:17:13;;;;;;;;;;;;;;;24.39;55.12;97826.91;5036327;28;19948;-63
2023/06/20 09:19:41;;;;;;;;;;;;;;;24.45;54.40;97828.09;5049562;28;19987;-64
2023/06/20 09:22:12;;;;;;;;;;;;;;;24.49;54.02;97828.84;5015053;28;19933;-64
2023/06/20 09:24:46;;;;;;;;;;;;;;;24.44;53.27;97823.72;5031548;28;19925;-64
2023/06/20 09:27:13;;;;;;;;;;;;;;;24.51;53.83;97815.34;5038891;28;20075;-64
2023/06/20 09:29:51;;;;;;;;;;;;;;;24.56;53.85;97812.16;5043741;28;19988;-64
2023/06/20 09:32:20;;;;;;;;;;;;;;;24.60;53.84;97808.53;5051247;28;20660;-63
2023/06/20 09:34:48;;;;;;;;;;;;;;;24.68;53.79;97807.31;5030258;28;19925;-63
2023/06/20 09:37:17;;;;;;;;;;;;;;;24.75;52.63;97810.03;5042081;28;20020;-63
2023/06/20 09:39:46;;;;;;;;;;;;;;;24.80;52.63;97798.47;5041712;28;19972;-64
2023/06/20 09:42:14;;;;;;;;;;;;;;;24.74;53.31;97803.69;5030511;28;19994;-65
2023/06/20 09:44:42;;;;;;;;;;;;;;;24.78;52.24;97803.66;5066282;28;19932;-64
2023/06/20 09:47:09;;;;;;;;;;;;;;;24.86;51.51;97802.41;5048221;28;19935;-64
2023/06/20 09:49:38;;;;;;;;;;;;;;;24.93;52.99;97796.00;5064359;28;19940;-64
2023/06/20 09:52:14;;;;;;;;;;;;;;;24.95;52.57;97797.16;5062645;28;20271;-64
2023/06/20 09:54:44;;;;;;;;;;;;;;;24.94;51.68;97787.25;5068515;28;19924;-63
2023/06/20 09:57:15;;;;;;;;;;;;;;;24.88;50.67;97777.78;5069046;28;19967;-63
2023/06/20 09:59:44;;;;;;;;;;;;;;;24.88;51.52;97777.78;5047223;28;19929;-64
2023/06/20 10:02:12;;;;;;;;;;;;;;;24.91;51.77;97779.72;5075981;28;20067;-64
2023/06/20 10:04:42;;;;;;;;;;;;;;;24.96;52.58;97773.72;5062218;28;20559;-65
2023/06/20 10:07:11;;;;;;;;;;;;;;;25.05;51.04;97776.84;5082462;28;19928;-65
2023/06/20 10:09:40;;;;;;;;;;;;;;;25.04;51.72;97778.03;5066531;28;20726;-64
2023/06/20 10:12:08;;;;;;;;;;;;;;;25.08;51.83;97770.47;5084921;28;19924;-64
2023/06/20 10:14:37;;;;;;;;;;;;;;;25.29;50.90;97771.47;5084411;28;19924;-65
2023/06/20 10:17:08;;;;;;;;;;;;;;;25.30;51.02;97770.25;5081479;28;19928;-62
2023/06/20 10:19:50;;;;;;;;;;;;;;;25.32;51.49;97765.88;5064938;28;19939;-63
2023/06/20 10:22:32;;;;;;;;;;;;;;;25.41;51.86;97779.31;5069328;28;19924;-62
2023/06/20 10:25:01;;;;;;;;;;;;;;;25.69;50.99;97769.06;5068695;28;19924;-63
2023/06/20 10:27:30;;;;;;;;;;;;;;;25.66;49.64;97764.34;5050741;28;19932;-64
2023/06/20 10:29:59;;;;;;;;;;;;;;;25.58;49.07;97767.19;5068443;28;19924;-63
2023/06/20 10:32:27;;;;;;;;;;;;;;;25.59;49.12;97757.66;5077723;28;19925;-62
2023/06/20 10:34:55;;;;;;;;;;;;;;;25.62;48.61;97753.25;5070643;28;19924;-62
2023/06/20 10:37:41;;;;;;;;;;;;;;;25.59;48.40;97754.88;5062389;28;19932;-62
2023/06/20 10:40:10;;;;;;;;;;;;;;;25.81;48.74;97760.22;5056193;28;19932;-64
2023/06/20 10:42:38;;;;;;;;;;;;;;;25.78;47.85;97755.47;5065463;28;20350;-63
2023/06/20 10:45:25;;;;;;;;;;;;;;;25.80;47.30;97742.72;5086589;28;19931;-62
2023/06/20 10:47:54;;;;;;;;;;;;;;;25.85;46.57;97742.25;5083776;28;19932;-62
2023/06/20 10:50:22;;;;;;;;;;;;;;;26.17;45.57;97748.63;5085527;28;19928;-65
2023/06/20 10:52:50;;;;;;;;;;;;;;;26.14;45.46;97750.22;5088957;28;19970;-62
2023/06/20 10:55:22;;;;;;;;;;;;;;;26.27;46.00;97744.91;5064422;28;19932;-63
2023/06/20 10:57:50;;;;;;;;;;;;;;;26.42;45.88;97743.50;5080981;28;19978;-62
2023/06/20 11:00:18;;;;;;;;;;;;;;;26.39;44.80;97730.38;5087473;28;19924;-63
2023/06/20 11:02:47;;;;;;;;;;;;;;;26.36;45.35;97739.56;5062892;28;19993;-62
2023/06/20 11:05:15;;;;;;;;;;;;;;;26.36;44.93;97734.00;5084030;28;20527;-64
2023/06/20 11:07:53;;;;;;;;;;;;;;;26.37;45.27;97730.03;5081853;28;19939;-64
2023/06/20 11:10:26;;;;;;;;;;;;;;;26.60;42.92;97735.66;5082680;28;19932;-64
2023/06/20 11:13:01;;;;;;;;;;;;;;;26.53;42.75;97730.22;5057408;28;19929;-63
2023/06/20 11:15:30;;;;;;;;;;;;;;;26.51;43.94;97731.81;5063402;28;20387;-62
2023/06/20 11:18:01;;;;;;;;;;;;;;;26.50;43.82;97731.03;5060281;28;19925;-62
2023/06/20 11:20:29;;;;;;;;;;;;;;;26.48;44.82;97729.91;5061586;28;19924;-61
2023/06/20 11:22:58;;;;;;;;;;;;;;;26.53;43.13;97721.06;5065423;28;20442;-63
2023/06/20 11:25:27;;;;;;;;;;;;;;;26.66;43.04;97718.47;5070435;28;19924;-62
2023/06/20 11:27:55;;;;;;;;;;;;;;;26.72;43.22;97717.53;5080447;28;20349;-62
2023/06/20 11:30:26;;;;;;;;;;;;;;;26.54;43.15;97711.50;5076429;28;19924;-62
2023/06/20 11:33:04;;;;;;;;;;;;;;;26.46;43.01;97715.59;5079653;28;19928;-62
2023/06/20 11:35:48;;;;;;;;;;;;;;;26.70;41.83;97703.25;5070268;28;19996;-62
2023/06/20 11:38:17;;;;;;;;;;;;;;;26.57;42.97;97716.97;5085378;28;20418;-62
2023/06/20 11:40:45;;;;;;;;;;;;;;;26.57;42.47;97708.63;5083868;28;20288;-63
2023/06/20 11:43:23;;;;;;;;;;;;;;;26.53;42.41;97712.72;5085891;28;19963;-62
2023/06/20 11:45:51;;;;;;;;;;;;;;;26.60;42.70;97704.22;5076805;28;19965;-62
2023/06/20 11:48:21;;;;;;;;;;;;;;;26.55;42.77;97697.13;5052765;28;19951;-62
2023/06/20 11:50:55;;;;;;;;;;;;;;;26.48;43.01;97700.03;5067019;28;19932;-63
2023/06/20 11:53:25;;;;;;;;;;;;;;;26.58;42.62;97701.06;5079346;28;20018;-64
2023/06/20 11:55:53;;;;;;;;;;;;;;;26.52;42.15;97695.19;5073473;28;20305;-64
2023/06/20 11:58:21;;;;;;;;;;;;;;;26.55;42.65;97702.69;5086458;28;19928;-64
2023/06/20 12:01:00;;;;;;;;;;;;;;;26.56;42.24;97695.13;5079006;28;19929;-61
2023/06/20 12:03:29;;;;;;;;;;;;;;;26.54;41.93;97698.34;5080342;28;20055;-62
2023/06/20 12:05:57;;;;;;;;;;;;;;;26.62;41.96;97697.00;5035055;28;19962;-61
2023/06/20 12:08:31;;;;;;;;;;;;;;;26.62;42.09;97690.66;5067168;28;19971;-61
2023/06/20 12:11:00;;;;;;;;;;;;;;;26.66;42.22;97690.59;5063519;28;19978;-62
2023/06/20 12:13:28;;;;;;;;;;;;;;;26.80;41.81;97684.78;5043386;28;19978;-61
2023/06/20 12:15:57;;;;;;;;;;;;;;;26.93;42.67;97677.38;5051952;28;19990;-65
2023/06/20 12:18:25;;;;;;;;;;;;;;;26.85;40.60;97675.94;5046515;28;19932;-61
2023/06/20 12:20:54;;;;;;;;;;;;;;;26.76;40.74;97670.13;5060357;28;19931;-61
2023/06/20 12:23:30;;;;;;;;;;;;;;;26.79;41.43;97660.88;5042228;28;19925;-63
2023/06/20 12:25:58;;;;;;;;;;;;;;;26.92;40.95;97659.06;5062026;28;19950;-62
2023/06/20 12:28:28;;;;;;;;;;;;;;;27.25;40.59;97654.47;5064286;28;19924;-62
2023/06/20 12:30:56;;;;;;;;;;;;;;;27.19;40.86;97644.25;5047687;28;20336;-64
2023/06/20 12:33:24;;;;;;;;;;;;;;;27.34;40.34;97645.56;5065465;28;19936;-62
2023/06/20 12:35:52;;;;;;;;;;;;;;;27.32;39.97;97647.97;5058551;28;19968;-62
2023/06/20 12:38:21;;;;;;;;;;;;;;;27.47;39.59;97643.69;5066833;28;19929;-61
2023/06/20 12:40:49;;;;;;;;;;;;;;;27.28;40.87;97645.28;5071376;28;19924;-61
2023/06/20 12:43:17;;;;;;;;;;;;;;;27.38;40.65;97651.84;5067385;28;19932;-61
2023/06/20 12:45:46;;;;;;;;;;;;;;;27.45;40.19;97643.34;5069325;28;19978;-61
2023/06/20 12:48:14;;;;;;;;;;;;;;;27.35;40.07;97647.13;5047256;28;19928;-61
2023/06/20 12:50:42;;;;;;;;;;;;;;;27.35;40.18;97644.34;5066034;28;19928;-62
2023/06/20 12:53:10;;;;;;;;;;;;;;;27.44;40.07;97636.19;5074314;28;20308;-61
2023/06/20 12:55:39;;;;;;;;;;;;;;;27.75;40.09;97645.13;5075364;28;20032;-65
2023/06/20 12:58:07;;;;;;;;;;;;;;;27.84;39.51;97636.13;5052514;28;19931;-64